sensor_id;sensor_type;location;lat;lon;timestamp;temperature;humidity
39621;DHT22;25309;48.686;9.170;2023-03-23T00:01:19;13.80;86.80
39621;DHT22;25309;48.686;9.170;2023-03-23T00:03:47;13.80;86.80
39621;DHT22;25309;48.686;9.170;2023-03-23T00:06:13;13.80;86.90
39621;DHT22;25309;48.686;9.170;2023-03-23T00:08:44;13.80;87.10
39621;DHT22;25309;48.686;9.170;2023-03-23T00:11:10;13.70;87.20
39621;DHT22;25309;48.686;9.170;2023-03-23T00:13:36;13.70;87.30
39621;DHT22;25309;48.686;9.170;2023-03-23T00:16:03;13.70;87.60
39621;DHT22;25309;48.686;9.170;2023-03-23T00:18:29;13.60;87.70
39621;DHT22;25309;48.686;9.170;2023-03-23T00:20:56;13.60;87.90
39621;DHT22;25309;48.686;9.170;2023-03-23T00:23:23;13.60;88.10
39621;DHT22;25309;48.686;9.170;2023-03-23T00:25:51;13.60;88.20
39621;DHT22;25309;48.686;9.170;2023-03-23T00:28:19;13.60;88.30
39621;DHT22;25309;48.686;9.170;2023-03-23T00:30:55;13.60;88.30
39621;DHT22;25309;48.686;9.170;2023-03-23T00:33:22;13.60;88.40
39621;DHT22;25309;48.686;9.170;2023-03-23T00:35:49;13.50;88.40
39621;DHT22;25309;48.686;9.170;2023-03-23T00:38:19;13.60;89.20
39621;DHT22;25309;48.686;9.170;2023-03-23T00:40:45;13.60;88.50
39621;DHT22;25309;48.686;9.170;2023-03-23T00:43:12;13.50;88.30
39621;DHT22;25309;48.686;9.170;2023-03-23T00:45:39;13.50;88.60
39621;DHT22;25309;48.686;9.170;2023-03-23T00:48:05;13.50;88.70
39621;DHT22;25309;48.686;9.170;2023-03-23T00:50:31;13.40;88.80
39621;DHT22;25309;48.686;9.170;2023-03-23T00:52:57;13.50;88.60
39621;DHT22;25309;48.686;9.170;2023-03-23T00:55:25;13.50;88.60
39621;DHT22;25309;48.686;9.170;2023-03-23T00:57:51;13.50;88.50
39621;DHT22;25309;48.686;9.170;2023-03-23T01:00:18;13.50;88.70
39621;DHT22;25309;48.686;9.170;2023-03-23T01:02:45;13.50;88.80
39621;DHT22;25309;48.686;9.170;2023-03-23T01:05:11;13.50;88.90
39621;DHT22;25309;48.686;9.170;2023-03-23T01:07:37;13.40;88.80
39621;DHT22;25309;48.686;9.170;2023-03-23T01:10:04;13.40;89.20
39621;DHT22;25309;48.686;9.170;2023-03-23T01:12:31;13.40;89.20
39621;DHT22;25309;48.686;9.170;2023-03-23T01:14:57;13.40;89.30
39621;DHT22;25309;48.686;9.170;2023-03-23T01:17:23;13.50;89.30
39621;DHT22;25309;48.686;9.170;2023-03-23T01:19:49;13.50;89.30
39621;DHT22;25309;48.686;9.170;2023-03-23T01:22:15;13.40;89.40
39621;DHT22;25309;48.686;9.170;2023-03-23T01:24:41;13.40;89.50
39621;DHT22;25309;48.686;9.170;2023-03-23T01:27:07;13.40;89.90
39621;DHT22;25309;48.686;9.170;2023-03-23T01:29:34;13.40;89.60
39621;DHT22;25309;48.686;9.170;2023-03-23T01:32:01;13.40;89.70
39621;DHT22;25309;48.686;9.170;2023-03-23T01:34:27;13.40;89.60
39621;DHT22;25309;48.686;9.170;2023-03-23T01:36:53;13.40;89.60
39621;DHT22;25309;48.686;9.170;2023-03-23T01:39:19;13.40;89.80
39621;DHT22;25309;48.686;9.170;2023-03-23T01:41:46;13.40;89.80
39621;DHT22;25309;48.686;9.170;2023-03-23T01:47:22;13.40;89.90
39621;DHT22;25309;48.686;9.170;2023-03-23T01:49:50;13.40;89.90
39621;DHT22;25309;48.686;9.170;2023-03-23T01:52:19;13.50;89.90
39621;DHT22;25309;48.686;9.170;2023-03-23T01:54:49;13.50;90.00
39621;DHT22;25309;48.686;9.170;2023-03-23T01:57:18;13.50;89.90
39621;DHT22;25309;48.686;9.170;2023-03-23T01:59:47;13.50;89.90
39621;DHT22;25309;48.686;9.170;2023-03-23T02:02:22;13.50;89.80
39621;DHT22;25309;48.686;9.170;2023-03-23T02:04:49;13.50;90.00
39621;DHT22;25309;48.686;9.170;2023-03-23T02:07:18;13.60;90.00
39621;DHT22;25309;48.686;9.170;2023-03-23T02:09:46;13.60;90.00
39621;DHT22;25309;48.686;9.170;2023-03-23T02:12:12;13.60;89.90
39621;DHT22;25309;48.686;9.170;2023-03-23T02:14:38;13.60;89.80
39621;DHT22;25309;48.686;9.170;2023-03-23T02:17:09;13.60;89.10
39621;DHT22;25309;48.686;9.170;2023-03-23T02:22:58;13.70;89.50
39621;DHT22;25309;48.686;9.170;2023-03-23T02:25:45;13.70;89.50
39621;DHT22;25309;48.686;9.170;2023-03-23T02:28:35;13.70;89.60
39621;DHT22;25309;48.686;9.170;2023-03-23T02:31:17;13.70;90.00
39621;DHT22;25309;48.686;9.170;2023-03-23T02:33:50;13.60;90.10
39621;DHT22;25309;48.686;9.170;2023-03-23T02:36:25;13.60;90.20
39621;DHT22;25309;48.686;9.170;2023-03-23T02:38:59;13.50;90.20
39621;DHT22;25309;48.686;9.170;2023-03-23T02:41:30;13.50;90.30
39621;DHT22;25309;48.686;9.170;2023-03-23T02:43:57;13.50;90.50
39621;DHT22;25309;48.686;9.170;2023-03-23T02:46:23;13.50;90.60
39621;DHT22;25309;48.686;9.170;2023-03-23T02:48:53;13.50;90.70
39621;DHT22;25309;48.686;9.170;2023-03-23T02:51:20;13.50;90.90
39621;DHT22;25309;48.686;9.170;2023-03-23T02:53:48;13.40;90.80
39621;DHT22;25309;48.686;9.170;2023-03-23T02:56:16;13.40;90.80
39621;DHT22;25309;48.686;9.170;2023-03-23T02:58:43;13.50;90.90
39621;DHT22;25309;48.686;9.170;2023-03-23T03:04:06;13.50;91.00
39621;DHT22;25309;48.686;9.170;2023-03-23T03:06:41;13.50;90.80
39621;DHT22;25309;48.686;9.170;2023-03-23T03:09:19;13.50;90.80
39621;DHT22;25309;48.686;9.170;2023-03-23T03:11:49;13.50;90.80
39621;DHT22;25309;48.686;9.170;2023-03-23T03:14:20;13.60;90.70
39621;DHT22;25309;48.686;9.170;2023-03-23T03:16:53;13.60;90.60
39621;DHT22;25309;48.686;9.170;2023-03-23T03:19:25;13.60;90.70
39621;DHT22;25309;48.686;9.170;2023-03-23T03:21:54;13.60;90.70
39621;DHT22;25309;48.686;9.170;2023-03-23T03:24:31;13.50;90.80
39621;DHT22;25309;48.686;9.170;2023-03-23T03:27:00;13.50;90.80
39621;DHT22;25309;48.686;9.170;2023-03-23T03:29:38;13.50;91.00
39621;DHT22;25309;48.686;9.170;2023-03-23T03:32:09;13.50;90.70
39621;DHT22;25309;48.686;9.170;2023-03-23T03:34:38;13.50;90.70
39621;DHT22;25309;48.686;9.170;2023-03-23T03:37:05;13.50;90.70
39621;DHT22;25309;48.686;9.170;2023-03-23T03:39:35;13.60;90.70
39621;DHT22;25309;48.686;9.170;2023-03-23T03:42:03;13.60;90.70
39621;DHT22;25309;48.686;9.170;2023-03-23T03:44:29;13.70;90.60
39621;DHT22;25309;48.686;9.170;2023-03-23T03:46:55;13.70;90.60
39621;DHT22;25309;48.686;9.170;2023-03-23T03:49:22;13.70;90.50
39621;DHT22;25309;48.686;9.170;2023-03-23T03:51:49;13.70;90.60
39621;DHT22;25309;48.686;9.170;2023-03-23T03:54:21;13.70;90.60
39621;DHT22;25309;48.686;9.170;2023-03-23T03:56:46;13.70;90.60
39621;DHT22;25309;48.686;9.170;2023-03-23T03:59:32;13.70;90.60
39621;DHT22;25309;48.686;9.170;2023-03-23T04:02:18;13.70;90.60
39621;DHT22;25309;48.686;9.170;2023-03-23T04:04:47;13.80;90.70
39621;DHT22;25309;48.686;9.170;2023-03-23T04:07:15;13.70;90.70
39621;DHT22;25309;48.686;9.170;2023-03-23T04:09:42;13.70;90.80
39621;DHT22;25309;48.686;9.170;2023-03-23T04:12:10;13.70;90.80
39621;DHT22;25309;48.686;9.170;2023-03-23T04:14:54;13.70;90.80
39621;DHT22;25309;48.686;9.170;2023-03-23T04:17:22;13.70;90.80
39621;DHT22;25309;48.686;9.170;2023-03-23T04:19:48;13.70;90.80
39621;DHT22;25309;48.686;9.170;2023-03-23T04:22:16;13.80;90.80
39621;DHT22;25309;48.686;9.170;2023-03-23T04:24:43;13.80;90.80
39621;DHT22;25309;48.686;9.170;2023-03-23T04:27:14;13.80;91.30
39621;DHT22;25309;48.686;9.170;2023-03-23T04:29:41;13.80;90.90
39621;DHT22;25309;48.686;9.170;2023-03-23T04:32:24;13.80;91.00
39621;DHT22;25309;48.686;9.170;2023-03-23T04:34:54;13.80;91.10
39621;DHT22;25309;48.686;9.170;2023-03-23T04:37:27;13.80;91.00
39621;DHT22;25309;48.686;9.170;2023-03-23T04:39:55;13.80;91.00
39621;DHT22;25309;48.686;9.170;2023-03-23T04:42:28;13.80;90.90
39621;DHT22;25309;48.686;9.170;2023-03-23T04:45:15;13.80;90.90
39621;DHT22;25309;48.686;9.170;2023-03-23T04:47:42;13.90;91.00
39621;DHT22;25309;48.686;9.170;2023-03-23T04:50:20;13.90;90.90
39621;DHT22;25309;48.686;9.170;2023-03-23T04:52:51;13.80;90.90
39621;DHT22;25309;48.686;9.170;2023-03-23T04:55:18;13.80;91.10
39621;DHT22;25309;48.686;9.170;2023-03-23T04:57:52;13.80;91.10
39621;DHT22;25309;48.686;9.170;2023-03-23T05:00:47;13.80;91.10
39621;DHT22;25309;48.686;9.170;2023-03-23T05:03:18;13.80;91.10
39621;DHT22;25309;48.686;9.170;2023-03-23T05:05:46;13.80;91.10
39621;DHT22;25309;48.686;9.170;2023-03-23T05:08:19;13.80;91.20
39621;DHT22;25309;48.686;9.170;2023-03-23T05:10:50;13.80;91.20
39621;DHT22;25309;48.686;9.170;2023-03-23T05:13:17;13.80;91.20
39621;DHT22;25309;48.686;9.170;2023-03-23T05:15:47;13.80;91.20
39621;DHT22;25309;48.686;9.170;2023-03-23T05:18:13;13.80;91.30
39621;DHT22;25309;48.686;9.170;2023-03-23T05:20:39;13.80;91.20
39621;DHT22;25309;48.686;9.170;2023-03-23T05:23:14;13.80;91.30
39621;DHT22;25309;48.686;9.170;2023-03-23T05:25:42;13.80;91.30
39621;DHT22;25309;48.686;9.170;2023-03-23T05:28:15;13.80;91.30
39621;DHT22;25309;48.686;9.170;2023-03-23T05:30:53;13.80;91.30
39621;DHT22;25309;48.686;9.170;2023-03-23T05:33:21;13.80;91.40
39621;DHT22;25309;48.686;9.170;2023-03-23T05:36:03;13.80;91.50
39621;DHT22;25309;48.686;9.170;2023-03-23T05:38:40;13.70;91.60
39621;DHT22;25309;48.686;9.170;2023-03-23T05:41:12;13.70;91.60
39621;DHT22;25309;48.686;9.170;2023-03-23T05:43:41;13.70;91.60
39621;DHT22;25309;48.686;9.170;2023-03-23T05:46:27;13.70;91.60
39621;DHT22;25309;48.686;9.170;2023-03-23T05:48:57;13.80;91.60
39621;DHT22;25309;48.686;9.170;2023-03-23T05:51:30;13.80;91.60
39621;DHT22;25309;48.686;9.170;2023-03-23T05:53:57;13.80;91.70
39621;DHT22;25309;48.686;9.170;2023-03-23T05:56:25;13.80;91.70
39621;DHT22;25309;48.686;9.170;2023-03-23T05:59:06;13.70;91.80
39621;DHT22;25309;48.686;9.170;2023-03-23T06:01:35;13.70;91.90
39621;DHT22;25309;48.686;9.170;2023-03-23T06:04:01;13.70;92.30
39621;DHT22;25309;48.686;9.170;2023-03-23T06:06:38;13.70;91.90
39621;DHT22;25309;48.686;9.170;2023-03-23T06:09:09;13.70;92.00
39621;DHT22;25309;48.686;9.170;2023-03-23T06:12:00;13.80;91.90
39621;DHT22;25309;48.686;9.170;2023-03-23T06:14:45;13.80;91.90
39621;DHT22;25309;48.686;9.170;2023-03-23T06:17:15;13.80;91.90
39621;DHT22;25309;48.686;9.170;2023-03-23T06:19:43;13.90;91.90
39621;DHT22;25309;48.686;9.170;2023-03-23T06:22:15;13.80;91.90
39621;DHT22;25309;48.686;9.170;2023-03-23T06:25:06;13.80;92.00
39621;DHT22;25309;48.686;9.170;2023-03-23T06:27:39;13.80;92.00
39621;DHT22;25309;48.686;9.170;2023-03-23T06:30:09;13.90;91.90
39621;DHT22;25309;48.686;9.170;2023-03-23T06:32:35;13.90;92.00
39621;DHT22;25309;48.686;9.170;2023-03-23T06:35:08;13.90;92.00
39621;DHT22;25309;48.686;9.170;2023-03-23T06:37:41;13.90;92.00
39621;DHT22;25309;48.686;9.170;2023-03-23T06:40:14;13.90;91.90
39621;DHT22;25309;48.686;9.170;2023-03-23T06:42:52;13.90;91.70
39621;DHT22;25309;48.686;9.170;2023-03-23T06:45:24;13.90;91.60
39621;DHT22;25309;48.686;9.170;2023-03-23T06:48:02;13.90;91.60
39621;DHT22;25309;48.686;9.170;2023-03-23T06:50:29;13.90;91.70
39621;DHT22;25309;48.686;9.170;2023-03-23T06:52:56;13.90;91.60
39621;DHT22;25309;48.686;9.170;2023-03-23T06:55:23;13.90;91.70
39621;DHT22;25309;48.686;9.170;2023-03-23T06:57:49;14.00;91.70
39621;DHT22;25309;48.686;9.170;2023-03-23T07:00:17;14.00;91.60
39621;DHT22;25309;48.686;9.170;2023-03-23T07:02:44;14.10;91.50
39621;DHT22;25309;48.686;9.170;2023-03-23T07:05:11;14.20;91.40
39621;DHT22;25309;48.686;9.170;2023-03-23T07:07:38;14.20;91.40
39621;DHT22;25309;48.686;9.170;2023-03-23T07:10:20;14.30;91.40
39621;DHT22;25309;48.686;9.170;2023-03-23T07:12:46;14.30;91.30
39621;DHT22;25309;48.686;9.170;2023-03-23T07:15:12;14.40;91.30
39621;DHT22;25309;48.686;9.170;2023-03-23T07:17:43;14.40;91.30
39621;DHT22;25309;48.686;9.170;2023-03-23T07:20:21;14.40;91.30
39621;DHT22;25309;48.686;9.170;2023-03-23T07:22:48;14.40;91.30
39621;DHT22;25309;48.686;9.170;2023-03-23T07:25:35;14.40;91.30
39621;DHT22;25309;48.686;9.170;2023-03-23T07:28:02;14.50;91.20
39621;DHT22;25309;48.686;9.170;2023-03-23T07:30:29;14.50;91.20
39621;DHT22;25309;48.686;9.170;2023-03-23T07:32:57;14.50;91.30
39621;DHT22;25309;48.686;9.170;2023-03-23T07:35:24;14.50;91.20
39621;DHT22;25309;48.686;9.170;2023-03-23T07:38:11;14.50;91.30
39621;DHT22;25309;48.686;9.170;2023-03-23T07:40:38;14.50;91.30
39621;DHT22;25309;48.686;9.170;2023-03-23T07:43:10;14.50;91.30
39621;DHT22;25309;48.686;9.170;2023-03-23T07:45:59;14.60;91.10
39621;DHT22;25309;48.686;9.170;2023-03-23T07:48:43;14.60;91.00
39621;DHT22;25309;48.686;9.170;2023-03-23T07:51:09;14.70;91.00
39621;DHT22;25309;48.686;9.170;2023-03-23T07:53:35;14.70;91.10
39621;DHT22;25309;48.686;9.170;2023-03-23T07:56:16;14.70;90.90
39621;DHT22;25309;48.686;9.170;2023-03-23T07:59:03;14.80;90.90
39621;DHT22;25309;48.686;9.170;2023-03-23T08:01:31;14.90;91.00
39621;DHT22;25309;48.686;9.170;2023-03-23T08:04:19;14.90;91.00
39621;DHT22;25309;48.686;9.170;2023-03-23T08:07:08;15.00;91.10
39621;DHT22;25309;48.686;9.170;2023-03-23T08:09:45;15.00;90.90
39621;DHT22;25309;48.686;9.170;2023-03-23T08:12:24;15.10;91.00
39621;DHT22;25309;48.686;9.170;2023-03-23T08:15:17;15.10;91.10
39621;DHT22;25309;48.686;9.170;2023-03-23T08:17:58;15.20;91.00
39621;DHT22;25309;48.686;9.170;2023-03-23T08:20:48;15.20;91.10
39621;DHT22;25309;48.686;9.170;2023-03-23T08:23:46;15.20;91.20
39621;DHT22;25309;48.686;9.170;2023-03-23T08:26:13;15.30;91.50
39621;DHT22;25309;48.686;9.170;2023-03-23T08:28:53;15.30;91.20
39621;DHT22;25309;48.686;9.170;2023-03-23T08:31:48;15.40;91.20
39621;DHT22;25309;48.686;9.170;2023-03-23T08:34:33;15.50;91.20
39621;DHT22;25309;48.686;9.170;2023-03-23T08:37:32;15.60;91.10
39621;DHT22;25309;48.686;9.170;2023-03-23T08:40:19;15.70;91.30
39621;DHT22;25309;48.686;9.170;2023-03-23T08:43:19;15.60;91.30
39621;DHT22;25309;48.686;9.170;2023-03-23T08:46:11;15.60;91.60
39621;DHT22;25309;48.686;9.170;2023-03-23T08:49:09;15.50;91.80
39621;DHT22;25309;48.686;9.170;2023-03-23T08:51:41;15.50;92.10
39621;DHT22;25309;48.686;9.170;2023-03-23T08:54:29;15.50;92.20
39621;DHT22;25309;48.686;9.170;2023-03-23T08:57:14;15.40;92.30
39621;DHT22;25309;48.686;9.170;2023-03-23T08:59:54;15.50;92.50
39621;DHT22;25309;48.686;9.170;2023-03-23T09:02:40;15.50;92.60
39621;DHT22;25309;48.686;9.170;2023-03-23T09:05:22;15.50;92.60
39621;DHT22;25309;48.686;9.170;2023-03-23T09:08:16;15.50;92.70
39621;DHT22;25309;48.686;9.170;2023-03-23T09:10:43;15.60;92.70
39621;DHT22;25309;48.686;9.170;2023-03-23T09:13:09;15.60;92.80
39621;DHT22;25309;48.686;9.170;2023-03-23T09:15:34;15.70;92.80
39621;DHT22;25309;48.686;9.170;2023-03-23T09:18:00;15.80;92.90
39621;DHT22;25309;48.686;9.170;2023-03-23T09:20:29;15.90;92.90
39621;DHT22;25309;48.686;9.170;2023-03-23T09:22:56;16.00;92.90
39621;DHT22;25309;48.686;9.170;2023-03-23T09:25:26;16.30;92.50
39621;DHT22;25309;48.686;9.170;2023-03-23T09:27:55;16.80;92.00
39621;DHT22;25309;48.686;9.170;2023-03-23T09:30:23;16.90;91.80
39621;DHT22;25309;48.686;9.170;2023-03-23T09:32:50;16.80;91.90
39621;DHT22;25309;48.686;9.170;2023-03-23T09:35:16;16.90;91.80
39621;DHT22;25309;48.686;9.170;2023-03-23T09:37:43;17.00;91.70
39621;DHT22;25309;48.686;9.170;2023-03-23T09:40:12;17.00;91.80
39621;DHT22;25309;48.686;9.170;2023-03-23T09:43:02;16.90;91.90
39621;DHT22;25309;48.686;9.170;2023-03-23T09:45:36;16.80;92.00
39621;DHT22;25309;48.686;9.170;2023-03-23T09:48:19;16.80;92.10
39621;DHT22;25309;48.686;9.170;2023-03-23T09:50:48;16.60;92.10
39621;DHT22;25309;48.686;9.170;2023-03-23T09:53:18;16.60;92.40
39621;DHT22;25309;48.686;9.170;2023-03-23T09:55:44;16.50;92.20
39621;DHT22;25309;48.686;9.170;2023-03-23T09:58:18;16.40;92.30
39621;DHT22;25309;48.686;9.170;2023-03-23T10:00:50;16.40;92.50
39621;DHT22;25309;48.686;9.170;2023-03-23T10:03:20;16.30;92.70
39621;DHT22;25309;48.686;9.170;2023-03-23T10:05:48;16.20;93.00
39621;DHT22;25309;48.686;9.170;2023-03-23T10:08:16;16.30;93.00
39621;DHT22;25309;48.686;9.170;2023-03-23T10:10:48;16.50;93.00
39621;DHT22;25309;48.686;9.170;2023-03-23T10:13:24;16.90;92.40
39621;DHT22;25309;48.686;9.170;2023-03-23T10:15:54;17.00;92.30
39621;DHT22;25309;48.686;9.170;2023-03-23T10:18:26;17.20;92.00
39621;DHT22;25309;48.686;9.170;2023-03-23T10:20:58;17.30;91.70
39621;DHT22;25309;48.686;9.170;2023-03-23T10:23:40;17.40;91.70
39621;DHT22;25309;48.686;9.170;2023-03-23T10:26:14;17.40;91.60
39621;DHT22;25309;48.686;9.170;2023-03-23T10:28:45;17.30;91.60
39621;DHT22;25309;48.686;9.170;2023-03-23T10:31:17;17.30;91.50
39621;DHT22;25309;48.686;9.170;2023-03-23T10:33:47;17.40;91.60
39621;DHT22;25309;48.686;9.170;2023-03-23T10:36:16;17.40;91.60
39621;DHT22;25309;48.686;9.170;2023-03-23T10:38:45;17.50;91.70
39621;DHT22;25309;48.686;9.170;2023-03-23T10:41:14;17.50;91.40
39621;DHT22;25309;48.686;9.170;2023-03-23T10:43:41;17.50;91.70
39621;DHT22;25309;48.686;9.170;2023-03-23T10:46:20;17.50;91.70
39621;DHT22;25309;48.686;9.170;2023-03-23T10:48:49;17.50;91.50
39621;DHT22;25309;48.686;9.170;2023-03-23T10:51:18;17.60;91.60
39621;DHT22;25309;48.686;9.170;2023-03-23T10:53:50;17.70;91.50
39621;DHT22;25309;48.686;9.170;2023-03-23T10:56:22;17.80;91.40
39621;DHT22;25309;48.686;9.170;2023-03-23T10:58:49;17.90;91.70
39621;DHT22;25309;48.686;9.170;2023-03-23T11:01:18;17.90;91.10
39621;DHT22;25309;48.686;9.170;2023-03-23T11:03:47;18.00;90.90
39621;DHT22;25309;48.686;9.170;2023-03-23T11:06:20;17.90;90.90
39621;DHT22;25309;48.686;9.170;2023-03-23T11:08:50;17.80;91.10
39621;DHT22;25309;48.686;9.170;2023-03-23T11:11:19;17.80;91.10
39621;DHT22;25309;48.686;9.170;2023-03-23T11:13:48;17.70;91.10
39621;DHT22;25309;48.686;9.170;2023-03-23T11:16:25;17.60;91.20
39621;DHT22;25309;48.686;9.170;2023-03-23T11:18:51;17.50;91.40
39621;DHT22;25309;48.686;9.170;2023-03-23T11:21:19;17.30;91.90
39621;DHT22;25309;48.686;9.170;2023-03-23T11:23:49;17.10;92.00
39621;DHT22;25309;48.686;9.170;2023-03-23T11:26:19;17.00;92.00
39621;DHT22;25309;48.686;9.170;2023-03-23T11:28:51;16.90;92.70
39621;DHT22;25309;48.686;9.170;2023-03-23T11:31:21;16.80;93.20
39621;DHT22;25309;48.686;9.170;2023-03-23T11:33:53;16.60;93.30
39621;DHT22;25309;48.686;9.170;2023-03-23T11:36:19;16.60;93.20
39621;DHT22;25309;48.686;9.170;2023-03-23T11:38:46;16.50;93.40
39621;DHT22;25309;48.686;9.170;2023-03-23T11:41:18;16.50;93.50
39621;DHT22;25309;48.686;9.170;2023-03-23T11:43:45;16.60;93.30
39621;DHT22;25309;48.686;9.170;2023-03-23T11:46:29;16.60;93.60
39621;DHT22;25309;48.686;9.170;2023-03-23T11:49:01;16.60;93.30
39621;DHT22;25309;48.686;9.170;2023-03-23T11:51:32;16.70;93.60
39621;DHT22;25309;48.686;9.170;2023-03-23T11:54:04;16.80;93.20
39621;DHT22;25309;48.686;9.170;2023-03-23T11:56:35;17.00;93.20
39621;DHT22;25309;48.686;9.170;2023-03-23T11:59:02;17.00;92.40
39621;DHT22;25309;48.686;9.170;2023-03-23T12:01:46;17.00;92.70
39621;DHT22;25309;48.686;9.170;2023-03-23T12:04:25;17.10;92.50
39621;DHT22;25309;48.686;9.170;2023-03-23T12:06:59;17.20;92.30
39621;DHT22;25309;48.686;9.170;2023-03-23T12:09:41;17.20;92.00
39621;DHT22;25309;48.686;9.170;2023-03-23T12:12:15;17.30;92.00
39621;DHT22;25309;48.686;9.170;2023-03-23T12:14:49;17.30;91.90
39621;DHT22;25309;48.686;9.170;2023-03-23T12:17:27;17.40;91.60
39621;DHT22;25309;48.686;9.170;2023-03-23T12:20:06;17.40;91.70
39621;DHT22;25309;48.686;9.170;2023-03-23T12:22:51;17.40;91.40
39621;DHT22;25309;48.686;9.170;2023-03-23T12:25:43;17.30;91.20
39621;DHT22;25309;48.686;9.170;2023-03-23T12:28:22;17.30;91.20
39621;DHT22;25309;48.686;9.170;2023-03-23T12:30:56;17.20;91.30
39621;DHT22;25309;48.686;9.170;2023-03-23T12:33:32;17.20;91.40
39621;DHT22;25309;48.686;9.170;2023-03-23T12:36:08;17.10;91.10
39621;DHT22;25309;48.686;9.170;2023-03-23T12:39:01;17.10;91.20
39621;DHT22;25309;48.686;9.170;2023-03-23T12:41:34;17.00;91.20
39621;DHT22;25309;48.686;9.170;2023-03-23T12:44:06;17.00;91.10
39621;DHT22;25309;48.686;9.170;2023-03-23T12:46:45;17.10;91.20
39621;DHT22;25309;48.686;9.170;2023-03-23T12:49:16;17.10;91.10
39621;DHT22;25309;48.686;9.170;2023-03-23T12:51:49;17.20;91.00
39621;DHT22;25309;48.686;9.170;2023-03-23T12:54:23;17.20;91.10
39621;DHT22;25309;48.686;9.170;2023-03-23T12:56:54;17.20;90.80
39621;DHT22;25309;48.686;9.170;2023-03-23T12:59:26;17.20;90.90
39621;DHT22;25309;48.686;9.170;2023-03-23T13:01:58;17.20;90.70
39621;DHT22;25309;48.686;9.170;2023-03-23T13:04:29;17.30;90.70
39621;DHT22;25309;48.686;9.170;2023-03-23T13:07:00;17.30;90.80
39621;DHT22;25309;48.686;9.170;2023-03-23T13:09:35;17.50;90.90
39621;DHT22;25309;48.686;9.170;2023-03-23T13:12:03;17.50;90.60
39621;DHT22;25309;48.686;9.170;2023-03-23T13:14:37;17.50;90.50
39621;DHT22;25309;48.686;9.170;2023-03-23T13:17:14;17.50;90.20
39621;DHT22;25309;48.686;9.170;2023-03-23T13:19:56;17.50;90.50
39621;DHT22;25309;48.686;9.170;2023-03-23T13:22:29;17.50;90.40
39621;DHT22;25309;48.686;9.170;2023-03-23T13:25:00;17.50;90.20
39621;DHT22;25309;48.686;9.170;2023-03-23T13:27:27;17.50;90.40
39621;DHT22;25309;48.686;9.170;2023-03-23T13:29:54;17.50;90.20
39621;DHT22;25309;48.686;9.170;2023-03-23T13:32:21;17.50;90.30
39621;DHT22;25309;48.686;9.170;2023-03-23T13:34:49;17.50;90.10
39621;DHT22;25309;48.686;9.170;2023-03-23T13:37:21;17.50;90.10
39621;DHT22;25309;48.686;9.170;2023-03-23T13:39:52;17.50;90.20
39621;DHT22;25309;48.686;9.170;2023-03-23T13:42:23;17.40;90.20
39621;DHT22;25309;48.686;9.170;2023-03-23T13:45:18;17.40;90.30
39621;DHT22;25309;48.686;9.170;2023-03-23T13:47:44;17.40;90.20
39621;DHT22;25309;48.686;9.170;2023-03-23T13:50:25;17.50;90.30
39621;DHT22;25309;48.686;9.170;2023-03-23T13:52:54;17.60;90.40
39621;DHT22;25309;48.686;9.170;2023-03-23T13:55:39;17.70;90.20
39621;DHT22;25309;48.686;9.170;2023-03-23T13:58:22;17.80;89.80
39621;DHT22;25309;48.686;9.170;2023-03-23T14:00:50;17.80;89.70
39621;DHT22;25309;48.686;9.170;2023-03-23T14:03:23;17.80;89.30
39621;DHT22;25309;48.686;9.170;2023-03-23T14:06:00;17.80;88.90
39621;DHT22;25309;48.686;9.170;2023-03-23T14:08:38;17.80;88.90
39621;DHT22;25309;48.686;9.170;2023-03-23T14:11:13;17.80;88.00
39621;DHT22;25309;48.686;9.170;2023-03-23T14:13:45;17.70;88.40
39621;DHT22;25309;48.686;9.170;2023-03-23T14:16:17;17.70;87.90
39621;DHT22;25309;48.686;9.170;2023-03-23T14:18:51;17.70;88.70
39621;DHT22;25309;48.686;9.170;2023-03-23T14:21:25;17.70;88.40
39621;DHT22;25309;48.686;9.170;2023-03-23T14:23:51;17.70;88.50
39621;DHT22;25309;48.686;9.170;2023-03-23T14:26:22;17.70;89.00
39621;DHT22;25309;48.686;9.170;2023-03-23T14:28:50;17.70;87.90
39621;DHT22;25309;48.686;9.170;2023-03-23T14:31:19;17.60;87.20
39621;DHT22;25309;48.686;9.170;2023-03-23T14:33:46;17.60;87.50
39621;DHT22;25309;48.686;9.170;2023-03-23T14:36:13;17.40;87.90
39621;DHT22;25309;48.686;9.170;2023-03-23T14:38:40;17.40;88.10
39621;DHT22;25309;48.686;9.170;2023-03-23T14:41:06;17.40;87.70
39621;DHT22;25309;48.686;9.170;2023-03-23T14:43:35;17.40;87.40
39621;DHT22;25309;48.686;9.170;2023-03-23T14:46:04;17.40;87.70
39621;DHT22;25309;48.686;9.170;2023-03-23T14:48:31;17.40;87.80
39621;DHT22;25309;48.686;9.170;2023-03-23T14:50:58;17.40;88.00
39621;DHT22;25309;48.686;9.170;2023-03-23T14:53:29;17.40;87.50
39621;DHT22;25309;48.686;9.170;2023-03-23T14:56:00;17.30;86.80
39621;DHT22;25309;48.686;9.170;2023-03-23T14:58:28;17.40;87.70
39621;DHT22;25309;48.686;9.170;2023-03-23T15:00:58;17.40;86.80
39621;DHT22;25309;48.686;9.170;2023-03-23T15:03:25;17.30;86.40
39621;DHT22;25309;48.686;9.170;2023-03-23T15:05:55;17.30;87.40
39621;DHT22;25309;48.686;9.170;2023-03-23T15:08:25;17.30;86.70
39621;DHT22;25309;48.686;9.170;2023-03-23T15:11:01;17.30;86.60
39621;DHT22;25309;48.686;9.170;2023-03-23T15:13:28;17.30;86.90
39621;DHT22;25309;48.686;9.170;2023-03-23T15:16:03;17.30;87.20
39621;DHT22;25309;48.686;9.170;2023-03-23T15:18:34;17.30;87.20
39621;DHT22;25309;48.686;9.170;2023-03-23T15:21:09;17.30;87.30
39621;DHT22;25309;48.686;9.170;2023-03-23T15:23:41;17.30;86.80
39621;DHT22;25309;48.686;9.170;2023-03-23T15:26:20;17.30;87.20
39621;DHT22;25309;48.686;9.170;2023-03-23T15:28:48;17.30;87.40
39621;DHT22;25309;48.686;9.170;2023-03-23T15:31:15;17.30;87.40
39621;DHT22;25309;48.686;9.170;2023-03-23T15:33:41;17.30;87.20
39621;DHT22;25309;48.686;9.170;2023-03-23T15:36:14;17.20;87.30
39621;DHT22;25309;48.686;9.170;2023-03-23T15:38:43;17.20;87.40
39621;DHT22;25309;48.686;9.170;2023-03-23T15:41:22;17.20;87.70
39621;DHT22;25309;48.686;9.170;2023-03-23T15:43:50;17.20;87.80
39621;DHT22;25309;48.686;9.170;2023-03-23T15:46:22;17.10;87.50
39621;DHT22;25309;48.686;9.170;2023-03-23T15:48:50;17.10;87.70
39621;DHT22;25309;48.686;9.170;2023-03-23T15:51:18;17.00;87.90
39621;DHT22;25309;48.686;9.170;2023-03-23T15:53:44;17.00;88.00
39621;DHT22;25309;48.686;9.170;2023-03-23T15:56:13;17.00;88.00
39621;DHT22;25309;48.686;9.170;2023-03-23T15:58:39;17.00;88.10
39621;DHT22;25309;48.686;9.170;2023-03-23T16:01:11;17.00;88.30
39621;DHT22;25309;48.686;9.170;2023-03-23T16:03:44;17.00;88.30
39621;DHT22;25309;48.686;9.170;2023-03-23T16:06:13;16.90;88.50
39621;DHT22;25309;48.686;9.170;2023-03-23T16:08:51;16.90;87.70
39621;DHT22;25309;48.686;9.170;2023-03-23T16:11:21;16.80;88.00